Osawatomie, Kansas
Current Conditions -  °F | °C
As of 11:53 AM on Thursday 27 Nov 2014 (Local Time) from KIXD Reporting Station
Clear Clear  
Wind Chill: 31°   Ceiling: Unl
Heat Index: 31°   Visibility: 10mi
Dew Point: 21°   Wind: 3mph
Humidity: 67%   Direction: NA
Pressure: 30.5"   Gusts: NA
Location:  38.5°N, 94.95°W
Report Text: KIXD 271753Z VRB03KT 10SM CLR M01/M06 A3050 RMK AO2 SLP338 60000 T10061061 11006 21067 58010
Loading
Personal Weather Stations






























Interactive Weather Map New forecast layout! Learn more

10-Day Weather Forecast

Advertisements
Track Severe Weather on mobile